Time;durP1;ratioP1;P1;durP2;ratioP2;P2;SDS_P1;SDS_P2;PMS_P1;PMS_P2;Temp;Humidity;BMP_temperature;BMP_pressure;BME280_temperature;BME280_humidity;BME280_pressure;Samples;Min_cycle;Max_cycle;Signal;HPM_P1;HPM_P2
2021/09/14 00:02:23;;;;;;;8.57;5.22;;;;;;;13.66;88.67;101810.84;4842688;29;20065;-59
2021/09/14 00:04:48;;;;;;;11.43;5.40;;;;;;;13.69;88.50;101804.53;4842452;29;20054;-60
2021/09/14 00:07:14;;;;;;;11.35;5.60;;;;;;;13.68;88.65;101805.44;4842601;29;20038;-71
2021/09/14 00:09:39;;;;;;;9.07;5.05;;;;;;;13.70;88.66;101804.47;4842589;29;20174;-60
2021/09/14 00:12:05;;;;;;;10.73;5.03;;;;;;;13.72;88.72;101799.06;4842836;29;20040;-63
2021/09/14 00:14:31;;;;;;;10.80;5.30;;;;;;;13.71;88.81;101800.03;4842567;29;20034;-60
2021/09/14 00:16:56;;;;;;;11.35;5.65;;;;;;;13.72;88.84;101807.03;4842723;29;20061;-61
2021/09/14 00:19:22;;;;;;;12.57;5.43;;;;;;;13.75;88.79;101809.59;4843052;29;20061;-60
2021/09/14 00:21:47;;;;;;;8.73;5.18;;;;;;;13.76;88.46;101804.19;4843018;29;20061;-73
2021/09/14 00:24:13;;;;;;;11.65;5.28;;;;;;;13.85;88.36;101805.59;4842303;29;20116;-64
2021/09/14 00:26:38;;;;;;;10.45;6.05;;;;;;;13.91;87.96;101808.00;4842532;29;20060;-65
2021/09/14 00:29:03;;;;;;;11.93;5.20;;;;;;;13.96;87.80;101810.44;4842216;29;20503;-60
2021/09/14 00:31:29;;;;;;;11.43;5.50;;;;;;;14.00;87.55;101805.84;4842089;29;20038;-65
2021/09/14 00:33:54;;;;;;;10.07;5.50;;;;;;;14.03;87.28;101817.25;4842734;29;20037;-66
2021/09/14 00:36:20;;;;;;;9.90;5.13;;;;;;;14.06;87.26;101818.91;4842148;29;20053;-71
2021/09/14 00:38:46;;;;;;;9.50;4.88;;;;;;;14.09;87.37;101813.44;4842360;29;20336;-59
2021/09/14 00:41:12;;;;;;;8.75;5.65;;;;;;;14.14;86.86;101815.91;4842002;29;20030;-61
2021/09/14 00:43:38;;;;;;;10.18;5.22;;;;;;;14.17;86.65;101803.31;4842361;29;20041;-67
2021/09/14 00:46:03;;;;;;;11.85;5.53;;;;;;;14.20;86.94;101802.31;4841927;29;20029;-64
2021/09/14 00:48:29;;;;;;;10.07;5.78;;;;;;;14.22;86.66;101808.44;4842266;29;20034;-66
2021/09/14 00:50:54;;;;;;;10.27;5.88;;;;;;;14.23;86.40;101805.72;4842311;29;20087;-60
2021/09/14 00:53:20;;;;;;;14.18;5.75;;;;;;;14.23;86.43;101800.41;4842331;29;20071;-68
2021/09/14 00:55:46;;;;;;;9.88;5.60;;;;;;;14.22;86.74;101793.31;4841437;29;20034;-60
2021/09/14 00:58:11;;;;;;;9.38;5.40;;;;;;;14.31;85.90;101796.50;4842354;29;20034;-60
2021/09/14 01:00:36;;;;;;;10.60;5.95;;;;;;;14.32;85.94;101801.78;4841856;29;20194;-72
2021/09/14 01:03:02;;;;;;;10.50;5.68;;;;;;;14.32;85.87;101795.56;4842110;29;20053;-60
2021/09/14 01:05:27;;;;;;;11.57;5.88;;;;;;;14.28;86.25;101786.00;4841893;29;20049;-69
2021/09/14 01:07:53;;;;;;;10.20;5.97;;;;;;;14.30;86.38;101794.78;4841801;29;20038;-67
2021/09/14 01:10:18;;;;;;;9.70;5.72;;;;;;;14.31;85.81;101785.84;4841395;29;20526;-67
2021/09/14 01:12:44;;;;;;;9.60;5.32;;;;;;;14.30;85.79;101779.66;4841559;29;20040;-60
2021/09/14 01:15:10;;;;;;;9.35;5.55;;;;;;;14.26;85.93;101783.41;4841861;29;20030;-61
2021/09/14 01:17:36;;;;;;;11.18;5.32;;;;;;;14.28;86.03;101778.00;4841896;29;20082;-61
2021/09/14 01:20:02;;;;;;;10.30;5.80;;;;;;;14.25;85.92;101781.66;4841353;29;20044;-60
2021/09/14 01:22:29;;;;;;;8.77;5.22;;;;;;;14.25;86.13;101779.00;4841605;29;20394;-59
2021/09/14 01:24:54;;;;;;;10.95;5.78;;;;;;;14.21;85.99;101783.59;4841477;29;20151;-60
2021/09/14 01:27:19;;;;;;;12.27;5.88;;;;;;;14.18;86.16;101778.44;4841177;29;20034;-61
2021/09/14 01:32:29;;;;;;;9.35;5.68;;;;;;;14.07;86.52;101765.56;4841345;29;20118;-72
2021/09/14 01:34:54;;;;;;;9.07;5.40;;;;;;;14.00;86.97;101761.47;4841024;29;20034;-61
2021/09/14 01:37:19;;;;;;;12.40;6.20;;;;;;;13.96;87.10;101764.31;4841606;29;20129;-60
2021/09/14 01:39:45;;;;;;;10.50;5.80;;;;;;;13.96;87.21;101767.00;4841415;29;20486;-60
2021/09/14 01:42:10;;;;;;;11.23;6.15;;;;;;;13.91;87.54;101775.16;4840724;29;20045;-63
2021/09/14 01:44:35;;;;;;;10.15;5.45;;;;;;;13.95;87.54;101774.09;4841381;29;20026;-61
2021/09/14 01:47:01;;;;;;;11.00;5.78;;;;;;;13.98;87.17;101768.66;4841276;29;20376;-70
2021/09/14 01:49:26;;;;;;;13.52;6.18;;;;;;;13.98;87.32;101759.78;4841506;29;20494;-60
2021/09/14 01:51:51;;;;;;;11.75;6.25;;;;;;;13.98;87.34;101762.44;4841182;29;20032;-66
2021/09/14 01:54:17;;;;;;;15.48;6.25;;;;;;;13.97;87.62;101753.59;4841752;29;20094;-60
2021/09/14 01:56:42;;;;;;;14.75;6.95;;;;;;;13.96;87.42;101749.19;4840770;29;20030;-61
2021/09/14 01:59:08;;;;;;;13.38;6.07;;;;;;;13.98;87.41;101751.78;4841627;29;20159;-60
2021/09/14 02:01:40;;;;;;;10.85;6.38;;;;;;;13.98;87.69;101752.69;4840953;29;20554;-60
2021/09/14 02:04:10;;;;;;;10.73;6.40;;;;;;;14.00;87.33;101756.16;4836532;29;20058;-65
2021/09/14 03:00:31;;;;;;;15.43;8.68;;;;;;;13.33;89.84;101715.50;4734825;30;20090;-61
2021/09/14 03:02:57;;;;;;;15.10;8.70;;;;;;;13.31;89.91;101711.19;4749002;29;20070;-65
2021/09/14 03:05:22;;;;;;;16.40;8.32;;;;;;;13.28;89.97;101705.06;4824595;29;20126;-65
2021/09/14 03:07:48;;;;;;;14.30;8.75;;;;;;;13.23;90.14;101707.03;4807876;29;20452;-63
2021/09/14 03:10:13;;;;;;;18.27;8.90;;;;;;;13.20;90.16;101698.34;4811064;29;20031;-60
2021/09/14 03:12:38;;;;;;;15.70;9.00;;;;;;;13.15;90.32;101690.56;4844051;29;20030;-72
2021/09/14 03:15:04;;;;;;;15.05;9.15;;;;;;;13.12;90.72;101688.03;4843633;29;20037;-61
2021/09/14 03:17:30;;;;;;;15.32;8.27;;;;;;;13.09;90.65;101689.03;4842004;29;20106;-73
2021/09/14 03:19:55;;;;;;;16.13;8.80;;;;;;;13.05;90.76;101676.78;4844366;29;20061;-66
2021/09/14 03:22:20;;;;;;;17.77;9.30;;;;;;;13.00;90.70;101676.09;4843498;29;20060;-60
2021/09/14 03:24:46;;;;;;;14.23;8.75;;;;;;;12.98;90.86;101675.31;4843345;29;20460;-61
2021/09/14 03:27:11;;;;;;;15.15;9.07;;;;;;;13.02;90.86;101673.38;4827015;29;20559;-59
2021/09/14 03:29:36;;;;;;;13.68;8.60;;;;;;;13.00;90.62;101662.81;4843629;29;20117;-63
2021/09/14 03:32:02;;;;;;;16.75;9.25;;;;;;;12.97;90.81;101662.97;4843644;29;20038;-67
2021/09/14 03:34:27;;;;;;;15.95;9.10;;;;;;;12.93;91.15;101666.69;4843623;29;20034;-60
2021/09/14 03:36:52;;;;;;;16.80;8.88;;;;;;;12.92;91.28;101663.13;4843603;29;20108;-62
2021/09/14 03:39:18;;;;;;;15.82;9.27;;;;;;;12.91;91.21;101649.91;4843245;29;20113;-59
2021/09/14 03:41:43;;;;;;;17.88;9.52;;;;;;;12.91;91.08;101661.41;4843392;29;20044;-60
2021/09/14 03:44:08;;;;;;;17.55;9.63;;;;;;;12.91;91.41;101652.56;4843008;29;20455;-60
2021/09/14 03:46:34;;;;;;;13.65;8.90;;;;;;;12.87;91.15;101649.16;4843247;29;20554;-67
2021/09/14 03:49:00;;;;;;;19.38;9.00;;;;;;;12.89;91.21;101654.41;4843271;29;20459;-60
2021/09/14 03:51:25;;;;;;;17.40;9.10;;;;;;;12.89;91.04;101657.06;4843040;29;20034;-60
2021/09/14 03:53:50;;;;;;;16.00;9.25;;;;;;;12.87;91.22;101656.28;4842401;29;20037;-59
2021/09/14 03:56:16;;;;;;;15.88;9.45;;;;;;;12.85;91.32;101650.16;4826222;29;20038;-59
2021/09/14 03:58:41;;;;;;;16.95;9.77;;;;;;;12.83;91.30;101652.88;4842069;29;20395;-58
2021/09/14 04:01:07;;;;;;;15.95;9.25;;;;;;;12.83;91.22;101644.91;4842634;29;20030;-59
2021/09/14 04:11:15;;;;;;;20.70;10.50;;;;;;;12.72;91.33;101648.00;4824455;29;20043;-60
2021/09/14 04:13:40;;;;;;;16.55;10.07;;;;;;;12.72;91.47;101650.66;4824032;29;20039;-59
2021/09/14 04:16:05;;;;;;;17.58;9.95;;;;;;;12.70;91.53;101652.53;4823137;29;20079;-58
2021/09/14 04:18:31;;;;;;;16.30;9.82;;;;;;;12.72;91.69;101660.44;4823683;29;20034;-59
2021/09/14 04:20:56;;;;;;;14.88;8.90;;;;;;;12.68;91.58;101659.69;4823684;29;20039;-59
2021/09/14 04:23:21;;;;;;;18.90;9.82;;;;;;;12.69;91.43;101657.91;4823897;29;20187;-60
2021/09/14 04:25:47;;;;;;;20.77;9.65;;;;;;;12.69;91.14;101660.56;4823441;29;20400;-60
2021/09/14 04:28:12;;;;;;;18.35;9.93;;;;;;;12.67;91.28;101657.09;4823330;29;20432;-59
2021/09/14 04:30:38;;;;;;;14.13;9.50;;;;;;;12.66;91.31;101655.38;4823175;29;20113;-63
2021/09/14 04:33:03;;;;;;;17.38;9.98;;;;;;;12.63;91.44;101651.03;4823863;29;20030;-60
2021/09/14 04:35:29;;;;;;;15.07;8.93;;;;;;;12.59;91.29;101650.28;4822826;29;20068;-59
2021/09/14 04:37:54;;;;;;;16.08;9.43;;;;;;;12.57;91.50;101638.88;4823271;29;20042;-61
2021/09/14 04:40:19;;;;;;;16.73;9.73;;;;;;;12.56;91.19;101647.78;4822979;29;20484;-66
2021/09/14 04:42:45;;;;;;;17.27;9.73;;;;;;;12.56;91.50;101647.78;4823271;29;20159;-63
2021/09/14 04:45:10;;;;;;;16.67;10.32;;;;;;;12.58;91.67;101647.69;4823381;29;20415;-59
2021/09/14 04:47:36;;;;;;;16.67;10.05;;;;;;;12.58;91.39;101648.59;4822935;29;20087;-63
2021/09/14 04:50:01;;;;;;;19.90;9.68;;;;;;;12.56;91.36;101642.47;4823107;29;20510;-65
2021/09/14 04:52:26;;;;;;;21.55;9.52;;;;;;;12.52;91.44;101640.84;4823411;29;20030;-59
2021/09/14 04:54:52;;;;;;;21.42;10.40;;;;;;;12.52;91.76;101639.97;4823336;29;20110;-64
2021/09/14 04:57:17;;;;;;;19.42;10.27;;;;;;;12.51;91.58;101647.09;4823200;29;20119;-64
2021/09/14 04:59:42;;;;;;;18.55;10.43;;;;;;;12.51;91.64;101644.44;4823011;29;20054;-59
2021/09/14 05:02:08;;;;;;;17.15;10.50;;;;;;;12.53;91.60;101642.59;4819948;29;20518;-62
2021/09/14 05:04:33;;;;;;;19.60;10.52;;;;;;;12.53;91.65;101639.94;4811201;29;20125;-65
2021/09/14 05:06:58;;;;;;;18.20;10.50;;;;;;;12.54;91.57;101641.63;4837885;29;20104;-59
2021/09/14 05:09:24;;;;;;;21.30;10.38;;;;;;;12.58;91.84;101642.38;4837574;29;20109;-66
2021/09/14 05:11:50;;;;;;;19.77;10.48;;;;;;;12.61;91.57;101647.59;4835632;29;20045;-61
2021/09/14 05:14:15;;;;;;;19.92;10.60;;;;;;;12.64;91.25;101644.81;4837756;29;20102;-59
2021/09/14 05:16:40;;;;;;;21.40;10.95;;;;;;;12.65;91.51;101643.00;4837991;29;20124;-65
2021/09/14 05:19:08;;;;;;;17.13;10.75;;;;;;;12.65;91.18;101641.22;4837535;29;20049;-60
2021/09/14 05:21:33;;;;;;;18.63;10.32;;;;;;;12.67;90.94;101649.97;4837902;29;20030;-60
2021/09/14 05:23:58;;;;;;;17.40;10.13;;;;;;;12.69;91.04;101647.28;4837851;29;20392;-60
2021/09/14 05:26:26;;;;;;;19.38;11.25;;;;;;;12.72;90.69;101649.81;4838300;29;20090;-61
2021/09/14 05:28:51;;;;;;;21.05;10.77;;;;;;;12.71;90.60;101651.59;4837502;29;20057;-67
2021/09/14 05:31:16;;;;;;;17.90;10.23;;;;;;;12.73;90.52;101644.41;4832991;29;20467;-67
2021/09/14 05:33:45;;;;;;;19.83;11.05;;;;;;;12.72;90.63;101637.38;4816095;29;20662;-74
2021/09/14 05:36:10;;;;;;;18.65;10.20;;;;;;;12.74;90.28;101634.69;4834236;29;20135;-75
2021/09/14 05:38:36;;;;;;;16.67;10.40;;;;;;;12.73;90.28;101628.47;4830595;29;20034;-65
2021/09/14 05:41:01;;;;;;;15.90;10.10;;;;;;;12.77;90.48;101623.91;4809166;29;20072;-75
2021/09/14 05:43:28;;;;;;;18.60;10.63;;;;;;;12.77;90.42;101615.94;4805785;29;20027;-72
2021/09/14 05:45:54;;;;;;;17.52;10.40;;;;;;;12.79;90.40;101609.63;4833412;29;20403;-70
2021/09/14 05:48:20;;;;;;;17.42;9.82;;;;;;;12.86;89.94;101604.91;4836915;29;20042;-73
2021/09/14 05:50:45;;;;;;;16.90;10.48;;;;;;;12.88;89.57;101605.72;4838174;29;20144;-73
2021/09/14 05:53:10;;;;;;;17.95;10.32;;;;;;;12.92;89.58;101609.97;4837534;29;20042;-74
2021/09/14 05:55:39;;;;;;;19.10;10.27;;;;;;;12.98;89.61;101614.19;4829059;29;20126;-70
2021/09/14 05:58:06;;;;;;;17.83;10.18;;;;;;;13.01;89.01;101608.72;4820163;29;20440;-74
2021/09/14 06:00:32;;;;;;;19.55;10.30;;;;;;;13.03;88.92;101605.97;4820055;29;20042;-71
2021/09/14 06:02:58;;;;;;;17.92;10.32;;;;;;;13.01;88.83;101606.06;4820234;29;20042;-69
2021/09/14 06:05:23;;;;;;;19.27;10.55;;;;;;;13.04;89.37;101605.91;4837625;29;20072;-67
2021/09/14 06:07:49;;;;;;;15.13;10.40;;;;;;;13.13;88.77;101606.47;4824101;29;20090;-72
2021/09/14 06:10:14;;;;;;;18.17;9.77;;;;;;;13.14;88.53;101603.72;4819343;29;20041;-74
2021/09/14 06:12:40;;;;;;;19.85;10.30;;;;;;;13.16;88.45;101601.00;4820233;29;20036;-63
2021/09/14 06:15:05;;;;;;;16.42;10.55;;;;;;;13.20;88.26;101595.50;4821169;29;20472;-64
2021/09/14 06:17:31;;;;;;;14.43;9.43;;;;;;;13.20;87.98;101595.50;4822514;29;20053;-74
2021/09/14 06:19:56;;;;;;;21.38;10.30;;;;;;;13.19;88.08;101595.56;4819376;29;20027;-68
2021/09/14 06:22:21;;;;;;;17.73;10.10;;;;;;;13.21;88.86;101606.97;4820095;29;20034;-66
2021/09/14 06:24:47;;;;;;;16.35;10.43;;;;;;;13.28;88.30;101600.47;4827469;29;20030;-69
2021/09/14 06:27:13;;;;;;;16.77;10.10;;;;;;;13.35;88.30;101604.59;4837498;29;20033;-64
2021/09/14 06:29:39;;;;;;;18.05;10.32;;;;;;;13.41;87.92;101601.72;4837780;29;20113;-65
2021/09/14 06:32:07;;;;;;;17.58;10.10;;;;;;;13.49;87.15;101600.47;4837480;29;20108;-66
2021/09/14 06:34:33;;;;;;;17.42;9.73;;;;;;;13.53;86.85;101600.28;4837422;29;20040;-68
2021/09/14 06:36:58;;;;;;;17.08;10.43;;;;;;;13.59;86.82;101609.78;4837299;29;20042;-66
2021/09/14 06:39:24;;;;;;;16.15;10.02;;;;;;;13.72;87.11;101597.66;4837824;29;20405;-71
2021/09/14 06:41:49;;;;;;;14.52;9.88;;;;;;;13.82;86.24;101602.53;4833581;29;20474;-61
2021/09/14 06:44:14;;;;;;;14.40;9.23;;;;;;;13.94;85.63;101615.28;4819274;29;20397;-61
2021/09/14 06:46:40;;;;;;;14.38;9.63;;;;;;;14.06;85.10;101611.19;4834403;29;20440;-63
2021/09/14 06:49:05;;;;;;;16.13;10.07;;;;;;;14.21;84.84;101610.44;4831935;29;20117;-66
2021/09/14 06:51:30;;;;;;;15.98;9.55;;;;;;;14.32;84.38;101609.06;4834503;29;20094;-62
2021/09/14 06:53:56;;;;;;;16.85;10.50;;;;;;;14.37;83.98;101605.25;4826495;29;20106;-70
2021/09/14 06:56:24;;;;;;;17.33;10.48;;;;;;;14.41;83.87;101598.84;4821481;29;20046;-72
2021/09/14 06:58:49;;;;;;;18.33;10.73;;;;;;;14.47;84.04;101589.66;4838950;29;20030;-60
2021/09/14 07:01:18;;;;;;;16.65;10.40;;;;;;;14.51;83.84;101596.56;4828574;29;20034;-63
2021/09/14 07:03:44;;;;;;;16.95;10.90;;;;;;;14.61;83.57;101604.13;4821729;29;20057;-70
2021/09/14 07:06:09;;;;;;;16.55;9.55;;;;;;;14.71;82.55;101603.59;4821903;29;20031;-69
2021/09/14 07:08:34;;;;;;;16.92;11.38;;;;;;;14.78;82.79;101592.63;4834336;29;20065;-73
2021/09/14 07:11:00;;;;;;;17.00;10.50;;;;;;;14.80;82.57;101580.09;4839961;29;20083;-70
2021/09/14 07:13:25;;;;;;;17.35;10.82;;;;;;;14.83;82.43;101578.13;4827612;29;20534;-64
2021/09/14 07:15:50;;;;;;;16.00;10.57;;;;;;;14.88;82.13;101585.91;4821330;29;20110;-72
2021/09/14 07:18:16;;;;;;;16.05;11.30;;;;;;;14.85;82.61;101594.91;4832942;29;20094;-58
2021/09/14 07:20:41;;;;;;;19.23;10.82;;;;;;;14.85;83.22;101588.72;4839987;29;20109;-64
2021/09/14 07:23:06;;;;;;;19.25;12.13;;;;;;;14.89;83.33;101584.97;4839882;29;20437;-57
2021/09/14 07:25:38;;;;;;;17.50;11.98;;;;;;;14.91;82.59;101583.94;4832615;29;20415;-64
2021/09/14 07:28:03;;;;;;;;;;;;;;;14.94;82.30;101600.75;4822667;29;20038;-60
2021/09/14 07:30:29;;;;;;;19.40;12.48;;;;;;;14.98;82.46;101584.47;4825800;29;20303;-69
2021/09/14 07:32:55;;;;;;;20.90;13.60;;;;;;;15.04;82.54;101578.84;4821378;29;20037;-72
2021/09/14 07:35:21;;;;;;;18.33;12.30;;;;;;;15.13;82.25;101581.94;4821843;29;20038;-60
2021/09/14 07:37:46;;;;;;;18.90;12.43;;;;;;;15.18;82.43;101578.13;4821951;29;20034;-73
2021/09/14 07:40:13;;;;;;;20.95;13.00;;;;;;;15.31;81.91;101573.00;4831759;29;20125;-64
2021/09/14 07:42:38;;;;;;;18.77;12.57;;;;;;;15.55;80.95;101580.66;4837644;29;20026;-60
2021/09/14 07:45:04;;;;;;;18.33;12.05;;;;;;;15.79;80.39;101581.09;4822208;29;20109;-66
2021/09/14 07:47:29;;;;;;;19.27;12.50;;;;;;;16.14;78.61;101580.09;4840163;29;20041;-67
2021/09/14 07:49:54;;;;;;;17.77;12.52;;;;;;;16.54;76.65;101584.03;4839763;29;20030;-74
2021/09/14 07:52:20;;;;;;;19.55;13.18;;;;;;;16.61;76.45;101578.31;4839955;29;20456;-66
2021/09/14 07:54:45;;;;;;;19.27;12.38;;;;;;;16.76;76.70;101589.94;4823432;29;20110;-62
2021/09/14 07:57:10;;;;;;;20.92;13.07;;;;;;;16.75;75.43;101582.84;4820429;29;20030;-59
2021/09/14 07:59:35;;;;;;;21.15;15.00;;;;;;;16.72;75.99;101581.22;4824612;29;20039;-65
2021/09/14 08:02:01;;;;;;;20.25;13.65;;;;;;;16.68;75.98;101571.66;4820929;29;20031;-62
2021/09/14 08:04:26;;;;;;;20.92;12.95;;;;;;;16.86;75.90;101569.72;4819150;29;20054;-64
2021/09/14 08:06:51;;;;;;;20.75;12.85;;;;;;;17.02;74.95;101572.34;4821228;29;20121;-64
2021/09/14 08:09:17;;;;;;;19.67;12.45;;;;;;;17.20;75.08;101581.09;4821108;29;20520;-62
2021/09/14 08:11:42;;;;;;;19.55;13.30;;;;;;;17.30;73.97;101579.56;4817918;29;20139;-60
2021/09/14 08:14:08;;;;;;;18.42;13.82;;;;;;;17.40;73.17;101579.84;4803410;29;20034;-59
2021/09/14 08:16:33;;;;;;;20.23;13.52;;;;;;;17.59;72.98;101576.88;4811387;29;20143;-61
2021/09/14 08:18:59;;;;;;;19.60;14.07;;;;;;;17.74;72.26;101585.78;4838398;29;20030;-57
2021/09/14 08:21:24;;;;;;;20.27;13.75;;;;;;;17.85;72.39;101577.91;4839055;29;20077;-61
2021/09/14 08:23:50;;;;;;;18.20;13.63;;;;;;;18.02;71.35;101573.34;4839483;29;20227;-65
2021/09/14 08:26:15;;;;;;;21.42;13.73;;;;;;;18.05;71.78;101583.00;4828097;29;20106;-61
2021/09/14 08:28:41;;;;;;;19.38;13.65;;;;;;;18.11;72.31;101571.88;4839398;29;20041;-59
2021/09/14 08:31:06;;;;;;;20.70;13.88;;;;;;;18.08;71.02;101572.94;4839776;29;20026;-64
2021/09/14 08:33:32;;;;;;;21.52;15.18;;;;;;;18.04;71.70;101573.22;4838669;29;20045;-62
2021/09/14 08:35:57;;;;;;;19.90;14.77;;;;;;;18.09;71.08;101584.50;4838467;29;20030;-60
2021/09/14 08:38:23;;;;;;;20.42;14.23;;;;;;;18.15;71.27;101589.47;4839410;29;20026;-63
2021/09/14 08:40:48;;;;;;;20.92;13.00;;;;;;;18.35;70.48;101588.19;4839242;29;20034;-58
2021/09/14 08:43:14;;;;;;;18.77;13.45;;;;;;;18.50;70.13;101575.56;4836948;29;20060;-61
2021/09/14 08:45:39;;;;;;;19.88;14.40;;;;;;;18.63;69.98;101580.94;4839379;29;20033;-64
2021/09/14 08:48:05;;;;;;;24.20;15.30;;;;;;;18.79;69.88;101584.31;4837964;29;20117;-60
2021/09/14 08:50:31;;;;;;;19.65;14.57;;;;;;;19.00;67.92;101589.22;4837195;29;20159;-59
2021/09/14 08:52:57;;;;;;;19.50;13.65;;;;;;;19.11;67.37;101588.50;4837488;29;20086;-58
2021/09/14 08:55:22;;;;;;;20.13;14.27;;;;;;;19.20;67.61;101587.00;4835433;29;20099;-62
2021/09/14 08:57:53;;;;;;;24.05;14.88;;;;;;;19.16;67.54;101581.81;4837709;29;20451;-59
2021/09/14 09:00:35;;;;;;;20.23;14.10;;;;;;;19.37;66.93;101580.44;4833331;29;20034;-59
2021/09/14 09:03:01;;;;;;;18.10;13.05;;;;;;;19.76;64.65;101576.72;4836860;29;20029;-72
2021/09/14 09:05:45;;;;;;;18.08;13.23;;;;;;;20.43;63.08;101580.81;4835442;29;20042;-61
2021/09/14 09:08:20;;;;;;;19.00;12.85;;;;;;;21.95;59.83;101577.22;4836052;29;20037;-68
2021/09/14 09:11:08;;;;;;;17.02;13.18;;;;;;;23.36;55.20;101585.22;4837210;29;20796;-65
2021/09/14 09:13:54;;;;;;;17.63;12.88;;;;;;;24.95;50.66;101578.13;4837604;29;20026;-64
2021/09/14 09:16:28;;;;;;;18.20;12.32;;;;;;;25.64;47.92;101567.06;4835136;29;20050;-61
2021/09/14 09:18:59;;;;;;;16.30;12.55;;;;;;;26.06;47.10;101576.59;4838776;29;20069;-65
2021/09/14 09:21:36;;;;;;;16.77;10.60;;;;;;;26.93;45.42;101575.03;4838069;29;20057;-62
2021/09/14 09:24:06;;;;;;;16.05;10.75;;;;;;;27.21;42.69;101572.13;4838539;29;20063;-64
2021/09/14 09:26:35;;;;;;;15.30;11.95;;;;;;;27.04;43.60;101562.19;4837562;29;20074;-67
2021/09/14 09:29:04;;;;;;;15.52;11.13;;;;;;;27.25;44.29;101557.22;4837644;29;20475;-59
2021/09/14 09:31:30;;;;;;;15.13;10.70;;;;;;;27.67;42.15;101546.56;4821895;29;20123;-68
2021/09/14 09:34:07;;;;;;;12.88;10.52;;;;;;;27.71;41.68;101553.38;4812649;29;20352;-63
2021/09/14 09:36:40;;;;;;;13.85;10.80;;;;;;;27.91;41.65;101553.97;4836209;29;20153;-59
2021/09/14 09:39:08;;;;;;;14.68;11.38;;;;;;;28.19;40.14;101549.09;4837347;29;20034;-61
2021/09/14 09:41:38;;;;;;;16.77;11.05;;;;;;;28.36;40.12;101546.41;4819153;29;20050;-66
2021/09/14 09:44:11;;;;;;;15.17;10.43;;;;;;;27.59;42.20;101550.09;4837323;29;20470;-63
2021/09/14 09:46:37;;;;;;;16.67;11.23;;;;;;;26.88;44.32;101557.50;4829626;29;20318;-64
2021/09/14 09:49:08;;;;;;;15.05;10.55;;;;;;;27.02;45.02;101562.34;4836743;29;20041;-62
2021/09/14 09:51:36;;;;;;;17.70;11.10;;;;;;;27.21;44.63;101555.00;4836246;29;20026;-67
2021/09/14 09:54:02;;;;;;;12.88;10.13;;;;;;;28.16;42.17;101560.34;4837620;29;20108;-63
2021/09/14 09:56:32;;;;;;;12.55;9.38;;;;;;;28.56;42.15;101552.38;4837728;29;20034;-59
2021/09/14 09:59:01;;;;;;;14.73;10.65;;;;;;;29.27;39.26;101552.63;4837885;29;20356;-62
2021/09/14 10:01:27;;;;;;;18.13;11.30;;;;;;;29.18;39.20;101549.06;4812758;29;20109;-61
2021/09/14 10:03:58;;;;;;;15.57;9.45;;;;;;;29.46;38.47;101532.28;4836808;29;20053;-59
2021/09/14 10:06:29;;;;;;;11.90;9.38;;;;;;;29.99;36.09;101534.44;4837991;29;20038;-62
2021/09/14 10:08:56;;;;;;;15.82;10.93;;;;;;;29.83;37.84;101535.34;4837582;29;20132;-63
2021/09/14 10:11:29;;;;;;;12.15;8.48;;;;;;;30.36;37.26;101536.38;4837301;29;20030;-60
2021/09/14 10:14:13;;;;;;;15.10;10.57;;;;;;;30.14;38.02;101537.25;4836941;29;20030;-72
2021/09/14 10:16:46;;;;;;;12.50;10.68;;;;;;;30.39;36.10;101537.91;4831013;29;20025;-63
2021/09/14 10:19:14;;;;;;;14.15;10.52;;;;;;;30.40;36.73;101534.16;4835843;29;20053;-66
2021/09/14 10:21:59;;;;;;;13.65;9.82;;;;;;;30.72;36.11;101523.97;4836358;29;20026;-59
2021/09/14 10:24:24;;;;;;;10.98;8.20;;;;;;;30.27;36.60;101532.03;4835396;29;20042;-61
2021/09/14 10:27:02;;;;;;;13.57;9.02;;;;;;;30.10;36.60;101531.28;4837233;29;20034;-60
2021/09/14 10:29:27;;;;;;;13.88;9.90;;;;;;;30.02;36.66;101534.09;4840373;29;20042;-63
2021/09/14 10:32:00;;;;;;;15.88;10.30;;;;;;;30.42;35.97;101529.31;4840158;29;20086;-63
2021/09/14 10:34:25;;;;;;;13.77;9.85;;;;;;;30.43;37.08;101530.19;4840462;29;20083;-63
2021/09/14 10:37:07;;;;;;;15.93;9.68;;;;;;;30.01;36.81;101535.09;4840526;29;20034;-61
2021/09/14 10:39:35;;;;;;;13.65;9.90;;;;;;;30.12;35.73;101531.09;4840570;29;20038;-62
2021/09/14 10:42:13;;;;;;;12.48;9.00;;;;;;;29.79;36.67;101525.84;4837530;29;20122;-75
2021/09/14 10:44:39;;;;;;;12.32;8.70;;;;;;;29.89;37.10;101521.03;4839771;29;20100;-62
2021/09/14 10:47:10;;;;;;;10.63;8.45;;;;;;;30.05;36.53;101510.00;4840525;29;20042;-62
2021/09/14 10:49:45;;;;;;;14.55;9.20;;;;;;;30.06;37.71;101511.66;4840259;29;20038;-67
2021/09/14 10:52:12;;;;;;;11.88;8.68;;;;;;;30.52;35.81;101502.63;4838008;29;20141;-62
2021/09/14 10:54:48;;;;;;;12.73;8.90;;;;;;;30.43;36.42;101503.72;4823957;29;20430;-62
2021/09/14 10:57:15;;;;;;;12.80;8.52;;;;;;;30.89;35.24;101503.63;4839392;29;20160;-60
2021/09/14 10:59:48;;;;;;;12.73;8.68;;;;;;;30.46;35.84;101500.63;4841998;29;20030;-63
2021/09/14 11:02:14;;;;;;;11.90;9.45;;;;;;;29.45;37.49;101505.19;4842256;29;20420;-63
2021/09/14 11:04:41;;;;;;;13.32;9.98;;;;;;;28.59;39.07;101501.13;4841149;29;20058;-63
2021/09/14 11:07:16;;;;;;;11.80;9.48;;;;;;;29.18;38.10;101496.41;4841926;29;20038;-61
2021/09/14 11:09:42;;;;;;;13.27;9.45;;;;;;;29.96;37.33;101477.47;4842007;29;20118;-63
2021/09/14 11:12:18;;;;;;;14.02;10.15;;;;;;;30.69;36.46;101475.13;4841794;29;20133;-62
2021/09/14 11:14:43;;;;;;;11.93;10.13;;;;;;;30.37;35.96;101479.84;4841509;29;20033;-60
2021/09/14 11:17:09;;;;;;;12.30;9.80;;;;;;;30.55;35.55;101472.22;4835745;29;20027;-59
2021/09/14 11:19:34;;;;;;;15.93;10.07;;;;;;;30.67;35.28;101469.84;4823404;29;20038;-62
2021/09/14 11:21:59;;;;;;;11.27;10.00;;;;;;;30.52;35.88;101467.09;4837585;29;20093;-59
2021/09/14 11:24:24;;;;;;;12.53;9.47;;;;;;;30.49;36.04;101466.66;4837992;29;20030;-62
2021/09/14 11:26:51;;;;;;;11.93;8.75;;;;;;;30.32;36.22;101466.75;4841431;29;20287;-68
2021/09/14 11:29:17;;;;;;;12.25;10.35;;;;;;;30.27;36.47;101469.19;4842311;29;20049;-62
2021/09/14 11:31:42;;;;;;;13.40;8.50;;;;;;;30.59;37.48;101461.75;4841529;29;20170;-61
2021/09/14 11:34:08;;;;;;;11.90;8.13;;;;;;;31.34;35.01;101464.50;4825274;29;20183;-67
2021/09/14 11:36:34;;;;;;;16.52;9.95;;;;;;;31.21;34.63;101468.75;4830931;29;20046;-70
2021/09/14 11:39:01;;;;;;;11.98;9.18;;;;;;;30.96;35.36;101470.06;4840252;29;20033;-61
2021/09/14 11:41:38;;;;;;;14.90;9.85;;;;;;;30.61;36.31;101462.41;4840810;29;20066;-58
2021/09/14 11:44:05;;;;;;;12.35;9.52;;;;;;;30.38;36.82;101465.16;4827029;29;20186;-60
2021/09/14 11:46:30;;;;;;;11.43;9.40;;;;;;;30.44;36.31;101458.09;4832614;29;20053;-63
2021/09/14 11:49:01;;;;;;;9.93;7.95;;;;;;;31.08;35.49;101451.34;4837639;29;20368;-69
2021/09/14 11:51:28;;;;;;;13.68;10.77;;;;;;;30.67;35.34;101444.44;4840705;29;20038;-67
2021/09/14 11:53:54;;;;;;;12.63;10.45;;;;;;;30.30;37.29;101446.97;4841950;29;20086;-69
2021/09/14 11:56:23;;;;;;;12.82;10.20;;;;;;;30.08;37.47;101448.69;4839549;29;20118;-63
2021/09/14 11:58:49;;;;;;;17.13;10.82;;;;;;;29.05;39.55;101447.88;4832867;29;20057;-68
2021/09/14 12:01:16;;;;;;;19.40;10.77;;;;;;;28.64;40.45;101450.69;4832079;29;20113;-60
2021/09/14 12:03:44;;;;;;;16.50;10.55;;;;;;;29.11;40.48;101444.44;4839367;29;20034;-66
2021/09/14 12:06:11;;;;;;;15.77;9.95;;;;;;;29.50;40.22;101442.75;4832237;29;20060;-63
2021/09/14 12:08:41;;;;;;;12.80;9.70;;;;;;;29.66;40.74;101439.09;4834481;29;20114;-62
2021/09/14 12:11:07;;;;;;;12.52;10.10;;;;;;;30.01;38.39;101429.44;4837975;29;20041;-61
2021/09/14 12:13:41;;;;;;;15.70;10.23;;;;;;;30.87;37.48;101436.47;4832057;29;20037;-68
2021/09/14 12:16:12;;;;;;;12.55;9.65;;;;;;;31.37;36.12;101436.72;4834620;29;20062;-62
2021/09/14 12:18:38;;;;;;;12.02;9.57;;;;;;;31.52;35.31;101431.22;4826651;29;20423;-65